createdAt,value
2017-09-18T00:01:03.346Z,11.40
2017-09-18T00:03:32.539Z,11.50
2017-09-18T00:06:01.156Z,11.50
2017-09-18T00:08:29.415Z,11.50
2017-09-18T00:10:57.700Z,11.50
2017-09-18T00:13:26.287Z,11.40
2017-09-18T00:15:54.588Z,11.40
2017-09-18T00:18:22.853Z,11.40
2017-09-18T00:20:51.476Z,11.40
2017-09-18T00:23:19.775Z,11.30
2017-09-18T00:25:48.038Z,11.30
2017-09-18T00:28:17.431Z,11.30
2017-09-18T00:30:45.687Z,11.30
2017-09-18T00:33:13.981Z,11.30
2017-09-18T00:35:42.559Z,11.30
2017-09-18T00:38:10.844Z,11.30
2017-09-18T00:40:39.132Z,11.20
2017-09-18T00:43:08.235Z,11.10
2017-09-18T00:45:36.538Z,11.00
2017-09-18T00:48:04.832Z,11.00
2017-09-18T00:50:34.169Z,10.80
2017-09-18T00:53:02.457Z,10.80
2017-09-18T00:55:30.724Z,10.80
2017-09-18T00:57:59.674Z,10.80
2017-09-18T01:00:27.962Z,10.80
2017-09-18T01:02:57.108Z,10.70
2017-09-18T01:05:26.165Z,10.70
2017-09-18T01:07:54.494Z,10.70
2017-09-18T01:10:22.834Z,10.70
2017-09-18T01:12:51.183Z,10.70
2017-09-18T01:15:19.460Z,10.70
2017-09-18T01:17:47.790Z,10.70
2017-09-18T01:20:16.144Z,10.70
2017-09-18T01:22:44.485Z,10.80
2017-09-18T01:25:13.452Z,10.80
2017-09-18T01:27:41.783Z,10.90
2017-09-18T01:30:10.340Z,10.90
2017-09-18T01:32:38.705Z,10.90
2017-09-18T01:35:07.816Z,11.00
2017-09-18T01:37:36.937Z,10.90
2017-09-18T01:40:06.023Z,10.90
2017-09-18T01:42:35.365Z,11.00
2017-09-18T01:45:03.721Z,11.00
2017-09-18T01:47:32.032Z,10.90
2017-09-18T01:50:00.324Z,11.00
2017-09-18T01:52:28.827Z,11.00
2017-09-18T01:54:57.937Z,11.10
2017-09-18T01:57:27.018Z,11.10
2017-09-18T01:59:55.331Z,11.10
2017-09-18T02:02:24.385Z,11.10
2017-09-18T02:04:54.306Z,11.10
2017-09-18T02:07:22.652Z,11.10
2017-09-18T02:09:51.715Z,11.20
2017-09-18T02:12:21.550Z,11.10
2017-09-18T02:14:49.834Z,11.20
2017-09-18T02:17:18.895Z,11.20
2017-09-18T02:19:47.179Z,11.20
2017-09-18T02:22:15.483Z,11.20
2017-09-18T02:24:43.787Z,11.20
2017-09-18T02:27:12.831Z,11.10
2017-09-18T02:29:41.139Z,11.10
2017-09-18T02:32:09.458Z,11.10
2017-09-18T02:34:37.807Z,11.10
2017-09-18T02:37:07.060Z,11.00
2017-09-18T02:39:35.359Z,11.00
2017-09-18T02:42:03.663Z,11.00
2017-09-18T02:44:33.046Z,10.90
2017-09-18T02:47:01.337Z,10.90
2017-09-18T02:49:29.604Z,10.90
2017-09-18T02:51:57.919Z,10.90
2017-09-18T02:54:26.228Z,10.90
2017-09-18T02:56:55.286Z,10.80
2017-09-18T02:59:23.611Z,10.80
2017-09-18T03:01:52.724Z,10.80
2017-09-18T03:04:23.642Z,10.70
2017-09-18T03:06:52.751Z,10.70
2017-09-18T03:09:22.182Z,10.70
2017-09-18T03:11:50.824Z,10.70
2017-09-18T03:14:19.084Z,10.70
2017-09-18T03:16:48.060Z,10.70
2017-09-18T03:19:16.682Z,10.70
2017-09-18T03:21:44.959Z,10.70
2017-09-18T03:24:13.268Z,10.70
2017-09-18T03:26:42.441Z,10.80
2017-09-18T03:29:10.724Z,10.80
2017-09-18T03:31:39.421Z,10.80
2017-09-18T03:34:07.727Z,10.90
2017-09-18T03:36:36.783Z,10.90
2017-09-18T03:39:05.143Z,10.90
2017-09-18T03:41:33.437Z,10.90
2017-09-18T03:44:02.047Z,10.90
2017-09-18T03:46:30.813Z,11.00
2017-09-18T03:48:59.074Z,10.90
2017-09-18T03:51:27.365Z,10.90
2017-09-18T03:53:55.657Z,10.90
2017-09-18T03:56:24.386Z,10.90
2017-09-18T03:58:52.682Z,10.80
2017-09-18T04:01:21.003Z,10.80
2017-09-18T04:03:49.365Z,10.80
2017-09-18T04:06:18.439Z,10.80
2017-09-18T04:08:47.010Z,10.80
2017-09-18T04:11:15.295Z,10.70
2017-09-18T04:13:44.503Z,10.80
2017-09-18T04:16:13.210Z,10.70
2017-09-18T04:18:43.140Z,10.60
2017-09-18T04:21:11.468Z,10.60
2017-09-18T04:23:40.567Z,10.60
2017-09-18T04:26:09.629Z,10.60
2017-09-18T04:28:38.956Z,10.50
2017-09-18T04:31:07.246Z,10.50
2017-09-18T04:33:35.582Z,10.50
2017-09-18T04:36:04.701Z,10.40
2017-09-18T04:38:33.852Z,10.40
2017-09-18T04:41:02.166Z,10.40
2017-09-18T04:43:31.263Z,10.30
2017-09-18T04:45:59.591Z,10.30
2017-09-18T04:48:27.901Z,10.30
2017-09-18T04:50:57.725Z,10.20
2017-09-18T04:53:26.053Z,10.20
2017-09-18T04:55:54.383Z,10.10
2017-09-18T04:58:22.684Z,10.20
2017-09-18T05:00:51.050Z,10.20
2017-09-18T05:03:19.981Z,10.20
2017-09-18T05:05:49.120Z,10.20
2017-09-18T05:08:17.423Z,10.20
2017-09-18T05:10:45.742Z,10.20
2017-09-18T05:13:14.111Z,10.20
2017-09-18T05:15:43.189Z,10.20
2017-09-18T05:18:11.520Z,10.10
2017-09-18T05:20:40.612Z,10.10
2017-09-18T05:23:08.985Z,10.10
2017-09-18T05:25:37.304Z,10.10
2017-09-18T05:28:05.650Z,10.10
2017-09-18T05:30:33.998Z,10.10
2017-09-18T05:33:02.294Z,10.10
2017-09-18T05:35:32.096Z,10.10
2017-09-18T05:38:01.158Z,10.10
2017-09-18T05:40:29.490Z,10.20
2017-09-18T05:42:57.803Z,10.20
2017-09-18T05:45:26.250Z,10.10
2017-09-18T05:47:54.674Z,10.20
2017-09-18T05:50:22.959Z,10.20
2017-09-18T05:52:51.253Z,10.30
2017-09-18T05:55:19.564Z,10.30
2017-09-18T05:57:47.837Z,10.30
2017-09-18T06:00:16.125Z,10.30
2017-09-18T06:02:44.414Z,10.40
2017-09-18T06:05:13.012Z,10.40
2017-09-18T06:07:41.975Z,10.50
2017-09-18T06:10:10.296Z,10.60
2017-09-18T06:12:39.323Z,10.60
2017-09-18T06:15:08.440Z,10.80
2017-09-18T06:17:37.507Z,10.80
2017-09-18T06:20:06.171Z,10.80
2017-09-18T06:22:34.463Z,10.80
2017-09-18T06:25:02.784Z,10.90
2017-09-18T06:27:31.893Z,11.10
2017-09-18T06:30:00.928Z,11.20
2017-09-18T06:32:29.259Z,11.20
2017-09-18T06:34:58.335Z,11.20
2017-09-18T06:37:27.470Z,11.20
2017-09-18T06:39:56.579Z,11.30
2017-09-18T06:42:25.647Z,11.40
2017-09-18T06:44:53.963Z,11.30
2017-09-18T06:47:22.266Z,11.40
2017-09-18T06:49:50.609Z,11.40
2017-09-18T06:52:18.906Z,11.50
2017-09-18T06:54:47.961Z,11.60
2017-09-18T06:57:17.815Z,11.60
2017-09-18T06:59:46.166Z,11.60
2017-09-18T07:02:14.444Z,11.70
2017-09-18T07:04:42.734Z,11.90
2017-09-18T07:07:11.118Z,12.00
2017-09-18T07:09:39.398Z,12.00
2017-09-18T07:12:09.195Z,12.30
2017-09-18T07:14:37.498Z,12.30
2017-09-18T07:17:05.823Z,12.30
2017-09-18T07:19:34.142Z,12.40
2017-09-18T07:22:02.483Z,12.40
2017-09-18T07:24:31.037Z,12.50
2017-09-18T07:26:59.385Z,12.60
2017-09-18T07:29:27.678Z,12.70
2017-09-18T07:31:55.990Z,12.70
2017-09-18T07:34:24.254Z,12.80
2017-09-18T07:36:52.640Z,12.90
2017-09-18T07:39:20.946Z,12.90
2017-09-18T07:41:50.052Z,12.90
2017-09-18T07:44:19.144Z,12.90
2017-09-18T07:46:48.895Z,13.00
2017-09-18T07:49:17.547Z,12.90
2017-09-18T10:49:14.934Z,31.40
2017-09-18T10:51:43.217Z,31.50
2017-09-18T11:04:11.567Z,23.70
2017-09-18T11:06:39.878Z,23.60
2017-09-18T11:09:08.161Z,22.90
2017-09-18T11:24:05.721Z,27.90
2017-09-18T11:26:34.078Z,28.60
2017-09-18T11:29:02.343Z,30.80
2017-09-18T11:31:30.677Z,31.70
2017-09-18T11:33:58.951Z,33.10
2017-09-18T11:36:27.288Z,34.00
2017-09-18T11:38:55.567Z,34.90
2017-09-18T11:43:53.692Z,33.20
2017-09-18T11:56:23.986Z,33.40
2017-09-18T11:58:52.271Z,34.70
2017-09-18T12:01:21.349Z,35.20
2017-09-18T12:03:50.555Z,35.60
2017-09-18T12:28:49.268Z,34.20
2017-09-18T12:33:47.355Z,34.00
2017-09-18T12:36:16.804Z,34.40
2017-09-18T12:38:45.868Z,38.20
2017-09-18T12:41:14.162Z,38.10
2017-09-18T12:53:42.354Z,28.90
2017-09-18T12:56:11.577Z,27.20
2017-09-18T12:58:40.940Z,27.10
2017-09-18T13:01:09.234Z,27.10
2017-09-18T13:08:37.198Z,27.40
2017-09-18T13:11:05.803Z,26.90
2017-09-18T13:13:34.152Z,25.90
2017-09-18T13:33:32.472Z,35.30
2017-09-18T13:43:30.694Z,36.40
2017-09-18T14:13:29.211Z,38.80
2017-09-18T14:15:59.011Z,39.90
2017-09-18T14:18:27.290Z,39.90
2017-09-18T14:20:57.178Z,41.40
2017-09-18T14:28:25.820Z,39.50
2017-09-18T14:30:54.234Z,39.70
2017-09-18T15:00:53.305Z,33.30
2017-09-18T15:03:21.560Z,30.40
2017-09-18T15:05:49.935Z,28.40
2017-09-18T15:08:18.993Z,25.80
2017-09-18T15:10:47.604Z,25.70
2017-09-18T15:13:15.883Z,24.60
2017-09-18T15:15:45.375Z,24.30
2017-09-18T15:18:13.982Z,24.30
2017-09-18T15:20:43.028Z,28.10
2017-09-18T15:23:11.349Z,28.00
2017-09-18T15:25:41.076Z,28.70
2017-09-18T15:28:10.488Z,28.30
2017-09-18T15:30:38.811Z,28.30
2017-09-18T15:33:07.403Z,27.20
2017-09-18T15:35:36.849Z,26.70
2017-09-18T15:38:05.182Z,26.60
2017-09-18T15:40:33.808Z,26.90
2017-09-18T15:43:02.309Z,26.40
2017-09-18T15:45:30.841Z,26.80
2017-09-18T15:47:59.494Z,27.20
2017-09-18T15:50:27.772Z,27.90
2017-09-18T15:52:56.048Z,27.10
2017-09-18T15:55:24.712Z,27.20
2017-09-18T15:57:54.698Z,27.60
2017-09-18T16:00:23.016Z,27.80
2017-09-18T16:05:22.315Z,29.10
2017-09-18T16:07:51.366Z,28.90
2017-09-18T16:10:20.040Z,28.90
2017-09-18T16:12:49.850Z,28.70
2017-09-18T16:15:18.139Z,28.60
2017-09-18T16:17:46.827Z,27.40
2017-09-18T16:20:15.760Z,26.50
2017-09-18T16:22:44.050Z,25.40
2017-09-18T16:25:13.113Z,23.70
2017-09-18T16:27:41.440Z,23.70
2017-09-18T16:30:10.068Z,23.00
2017-09-18T16:32:38.374Z,22.30
2017-09-18T16:35:06.697Z,21.80
2017-09-18T16:37:36.074Z,20.70
2017-09-18T16:40:04.441Z,20.60
2017-09-18T16:42:33.607Z,20.20
2017-09-18T16:45:02.235Z,19.80
2017-09-18T16:47:30.539Z,19.50
2017-09-18T16:49:58.840Z,19.20
2017-09-18T16:52:27.982Z,18.60
2017-09-18T16:54:56.277Z,18.60
2017-09-18T16:57:24.848Z,18.50
2017-09-18T16:59:53.136Z,18.30
2017-09-18T17:02:21.954Z,18.00
2017-09-18T17:04:51.042Z,17.80
2017-09-18T17:07:19.325Z,17.70
2017-09-18T17:09:47.604Z,17.50
2017-09-18T17:12:16.281Z,17.40
2017-09-18T17:14:44.732Z,17.20
2017-09-18T17:17:13.769Z,16.90
2017-09-18T17:19:42.419Z,16.90
2017-09-18T17:22:10.715Z,16.80
2017-09-18T17:24:39.790Z,16.70
2017-09-18T17:27:09.462Z,16.60
2017-09-18T17:29:37.735Z,16.50
2017-09-18T17:32:06.073Z,16.40
2017-09-18T17:34:35.407Z,16.30
2017-09-18T17:37:03.700Z,16.30
2017-09-18T17:39:32.015Z,16.30
2017-09-18T17:42:00.698Z,16.10
2017-09-18T17:44:28.956Z,16.00
2017-09-18T17:46:57.327Z,15.90
2017-09-18T17:49:26.067Z,15.80
2017-09-18T17:51:58.067Z,15.60
2017-09-18T17:54:26.690Z,15.50
2017-09-18T17:56:54.967Z,15.30
2017-09-18T17:59:23.372Z,15.20
2017-09-18T18:01:51.938Z,15.20
2017-09-18T18:04:20.751Z,15.10
2017-09-18T18:06:49.410Z,15.10
2017-09-18T18:09:18.018Z,15.00
2017-09-18T18:11:46.288Z,14.90
2017-09-18T18:14:14.566Z,14.80
2017-09-18T18:16:43.160Z,14.70
2017-09-18T18:19:11.462Z,14.50
2017-09-18T18:21:39.758Z,14.50
2017-09-18T18:24:08.332Z,14.40
2017-09-18T18:26:36.636Z,14.30
2017-09-18T18:29:06.743Z,14.20
2017-09-18T18:31:36.124Z,14.20
2017-09-18T18:34:04.425Z,14.10
2017-09-18T18:36:33.154Z,14.10
2017-09-18T18:39:02.208Z,13.90
2017-09-18T18:41:30.477Z,13.90
2017-09-18T18:43:59.464Z,13.80
2017-09-18T18:46:27.770Z,13.80
2017-09-18T18:48:56.067Z,13.70
2017-09-18T18:51:24.841Z,13.60
2017-09-18T18:53:53.487Z,13.60
2017-09-18T18:56:22.525Z,13.50
2017-09-18T18:58:51.149Z,13.40
2017-09-18T19:01:19.415Z,13.50
2017-09-18T19:03:48.525Z,13.40
2017-09-18T19:06:18.368Z,13.40
2017-09-18T19:08:47.446Z,13.40
2017-09-18T19:11:16.091Z,13.40
2017-09-18T19:13:44.393Z,13.40
2017-09-18T19:16:12.708Z,13.40
2017-09-18T19:18:41.339Z,13.30
2017-09-18T19:21:09.624Z,13.30
2017-09-18T19:23:37.933Z,13.30
2017-09-18T19:26:06.606Z,13.20
2017-09-18T19:28:34.932Z,13.20
2017-09-18T19:31:04.921Z,13.10
2017-09-18T19:33:33.502Z,13.10
2017-09-18T19:36:02.246Z,13.10
2017-09-18T19:38:31.280Z,13.00
2017-09-18T19:41:01.046Z,13.00
2017-09-18T19:43:29.408Z,13.00
2017-09-18T19:45:57.692Z,13.00
2017-09-18T19:48:26.348Z,13.00
2017-09-18T19:50:54.680Z,12.90
2017-09-18T19:53:23.634Z,12.90
2017-09-18T19:55:52.240Z,13.00
2017-09-18T19:58:20.572Z,13.00
2017-09-18T20:00:50.455Z,13.10
2017-09-18T20:03:19.122Z,13.10
2017-09-18T20:05:47.425Z,13.10
2017-09-18T20:08:15.720Z,13.10
2017-09-18T20:10:45.075Z,13.20
2017-09-18T20:13:13.425Z,13.20
2017-09-18T20:15:42.496Z,13.20
2017-09-18T20:18:11.159Z,13.20
2017-09-18T20:20:39.515Z,13.30
2017-09-18T20:23:10.776Z,13.30
2017-09-18T20:25:39.600Z,13.30
2017-09-18T20:28:08.790Z,13.30
2017-09-18T20:30:37.115Z,13.30
2017-09-18T20:33:06.189Z,13.20
2017-09-18T20:35:35.701Z,13.20
2017-09-18T20:38:04.370Z,13.20
2017-09-18T20:40:32.661Z,13.10
2017-09-18T20:43:00.971Z,13.00
2017-09-18T20:45:30.355Z,12.90
2017-09-18T20:47:58.650Z,12.90
2017-09-18T20:50:27.715Z,12.80
2017-09-18T20:52:56.507Z,12.80
2017-09-18T20:55:24.812Z,12.70
2017-09-18T20:57:53.879Z,12.60
2017-09-18T21:00:22.215Z,12.60
2017-09-18T21:02:51.733Z,12.50
2017-09-18T21:05:21.505Z,12.40
2017-09-18T21:07:51.285Z,12.40
2017-09-18T21:10:19.608Z,12.30
2017-09-18T21:12:48.579Z,12.30
2017-09-18T21:15:16.918Z,12.20
2017-09-18T21:17:45.965Z,12.20
2017-09-18T21:20:14.286Z,12.20
2017-09-18T21:22:42.650Z,12.10
2017-09-18T21:25:11.339Z,12.10
2017-09-18T21:27:39.651Z,12.20
2017-09-18T21:30:08.843Z,12.20
2017-09-18T21:32:37.167Z,12.10
2017-09-18T21:35:05.495Z,12.10
2017-09-18T21:37:33.799Z,12.10
2017-09-18T21:40:02.847Z,12.00
2017-09-18T21:42:31.175Z,12.00
2017-09-18T21:45:00.646Z,11.90
2017-09-18T21:47:28.982Z,11.90
2017-09-18T21:49:58.077Z,11.90
2017-09-18T21:52:26.359Z,11.90
2017-09-18T21:54:55.414Z,11.80
2017-09-18T21:57:23.742Z,11.80
2017-09-18T21:59:52.840Z,11.80
2017-09-18T22:02:21.891Z,11.70
2017-09-18T22:04:50.186Z,11.60
2017-09-18T22:07:18.509Z,11.70
2017-09-18T22:09:47.675Z,11.60
2017-09-18T22:12:15.978Z,11.60
2017-09-18T22:14:46.176Z,11.50
2017-09-18T22:17:14.487Z,11.50
2017-09-18T22:19:43.081Z,11.40
2017-09-18T22:22:11.366Z,11.40
2017-09-18T22:24:40.440Z,11.40
2017-09-18T22:27:09.615Z,11.40
2017-09-18T22:29:37.895Z,11.30
2017-09-18T22:32:06.469Z,11.20
2017-09-18T22:34:34.787Z,11.20
2017-09-18T22:37:04.148Z,11.10
2017-09-18T22:39:32.754Z,11.00
2017-09-18T22:42:01.060Z,11.00
2017-09-18T22:44:30.874Z,10.90
2017-09-18T22:46:59.458Z,10.90
2017-09-18T22:49:27.751Z,10.90
2017-09-18T22:51:56.096Z,10.90
2017-09-18T22:54:24.716Z,10.90
2017-09-18T22:56:53.003Z,10.90
2017-09-18T22:59:21.341Z,10.80
2017-09-18T23:01:50.648Z,10.80
2017-09-18T23:04:18.937Z,10.80
2017-09-18T23:06:47.259Z,10.80
2017-09-18T23:09:15.592Z,10.80
2017-09-18T23:11:43.907Z,10.70
2017-09-18T23:14:12.291Z,10.70
2017-09-18T23:16:40.599Z,10.70
2017-09-18T23:19:08.953Z,10.70
2017-09-18T23:21:37.278Z,10.60
2017-09-18T23:24:05.567Z,10.60
2017-09-18T23:26:33.883Z,10.60
2017-09-18T23:29:02.189Z,10.60
2017-09-18T23:31:30.784Z,10.60
2017-09-18T23:33:59.088Z,10.50
2017-09-18T23:36:27.393Z,10.50
2017-09-18T23:38:55.962Z,10.50
2017-09-18T23:41:25.028Z,10.40
2017-09-18T23:43:53.335Z,10.40
2017-09-18T23:46:22.023Z,10.40
2017-09-18T23:48:51.218Z,10.40
2017-09-18T23:51:19.509Z,10.40
2017-09-18T23:53:48.184Z,10.40
2017-09-18T23:56:17.995Z,10.30
2017-09-18T23:58:46.315Z,10.20
